createdAt,value
2023-02-15T00:01:30.517Z,15.00
2023-02-15T00:03:58.757Z,17.60
2023-02-15T00:06:27.075Z,17.80
2023-02-15T00:08:56.196Z,14.70
2023-02-15T00:11:43.732Z,14.50
2023-02-15T00:14:15.112Z,17.60
2023-02-15T00:16:44.869Z,14.80
2023-02-15T00:19:14.661Z,15.60
2023-02-15T00:21:46.121Z,13.20
2023-02-15T00:24:17.604Z,16.20
2023-02-15T00:26:46.907Z,17.40
2023-02-15T00:34:26.837Z,14.80
2023-02-15T00:36:57.774Z,16.80
2023-02-15T00:39:28.365Z,15.80
2023-02-15T00:41:57.040Z,15.00
2023-02-15T00:44:27.932Z,17.60
2023-02-15T00:47:01.308Z,13.90
2023-02-15T00:49:30.125Z,13.70
2023-02-15T00:52:01.578Z,15.60
2023-02-15T00:54:40.030Z,15.80
2023-02-15T00:57:16.153Z,16.50
2023-02-15T00:59:44.432Z,13.20
2023-02-15T01:02:15.572Z,16.80
2023-02-15T01:04:46.412Z,17.00
2023-02-15T01:07:14.793Z,36.70
2023-02-15T01:09:46.292Z,29.80
2023-02-15T01:12:21.495Z,16.30
2023-02-15T01:15:16.244Z,15.50
2023-02-15T01:17:50.696Z,11.40
2023-02-15T01:20:31.726Z,14.50
2023-02-15T01:23:09.879Z,13.00
2023-02-15T01:25:42.548Z,14.20
2023-02-15T01:28:13.200Z,12.90
2023-02-15T01:30:42.441Z,17.30
2023-02-15T01:33:19.020Z,16.30
2023-02-15T01:35:50.536Z,12.50
2023-02-15T01:38:18.713Z,15.30
2023-02-15T01:40:46.974Z,18.10
2023-02-15T01:43:15.265Z,16.70
2023-02-15T01:45:45.467Z,16.40
2023-02-15T01:48:13.691Z,16.10
2023-02-15T01:50:46.650Z,18.80
2023-02-15T01:53:45.947Z,17.10
2023-02-15T01:56:35.934Z,17.70
2023-02-15T01:59:13.012Z,20.30
2023-02-15T02:01:41.354Z,17.80
2023-02-15T02:04:27.208Z,17.20
2023-02-15T02:06:58.208Z,14.50
2023-02-15T02:09:27.409Z,21.20
2023-02-15T02:11:55.992Z,17.20
2023-02-15T02:14:25.798Z,17.70
2023-02-15T02:17:06.267Z,15.20
2023-02-15T02:19:49.795Z,13.90
2023-02-15T02:22:53.197Z,14.80
2023-02-15T02:25:39.810Z,16.50
2023-02-15T02:28:13.955Z,12.80
2023-02-15T02:30:54.774Z,14.80
2023-02-15T02:33:40.990Z,15.30
2023-02-15T02:36:42.505Z,14.70
2023-02-15T02:39:27.846Z,15.90
2023-02-15T02:42:19.783Z,11.80
2023-02-15T02:44:58.105Z,15.10
2023-02-15T02:47:39.862Z,14.70
2023-02-15T02:50:22.863Z,15.40
2023-02-15T02:52:53.927Z,16.50
2023-02-15T02:55:44.096Z,16.40
2023-02-15T02:58:21.293Z,16.00
2023-02-15T03:00:57.467Z,15.40
2023-02-15T03:03:29.213Z,18.90
2023-02-15T03:06:04.419Z,17.40
2023-02-15T03:08:46.398Z,14.50
2023-02-15T03:11:15.045Z,17.10
2023-02-15T03:13:46.192Z,13.90
2023-02-15T03:16:29.339Z,16.40
2023-02-15T03:19:12.441Z,16.20
2023-02-15T03:21:58.977Z,16.70
2023-02-15T03:24:37.266Z,14.50
2023-02-15T03:27:12.559Z,13.40
2023-02-15T03:29:41.285Z,18.00
2023-02-15T03:32:12.570Z,15.10
2023-02-15T03:34:41.020Z,13.50
2023-02-15T03:37:19.932Z,16.30
2023-02-15T03:40:23.205Z,18.20
2023-02-15T03:43:02.160Z,16.70
2023-02-15T03:45:36.695Z,19.80
2023-02-15T03:48:09.316Z,15.30
2023-02-15T03:50:57.472Z,16.70
2023-02-15T03:53:27.396Z,23.00
2023-02-15T03:55:57.538Z,20.50
2023-02-15T03:58:57.166Z,19.70
2023-02-15T04:01:55.536Z,17.40
2023-02-15T04:04:37.467Z,21.70
2023-02-15T04:07:09.858Z,19.10
2023-02-15T04:09:56.722Z,16.80
2023-02-15T04:12:25.305Z,23.50
2023-02-15T04:15:11.869Z,20.40
2023-02-15T04:17:40.461Z,22.90
2023-02-15T04:20:28.359Z,18.00
2023-02-15T04:23:15.038Z,17.80
2023-02-15T04:25:43.518Z,19.30
2023-02-15T04:28:16.903Z,19.80
2023-02-15T04:30:47.843Z,20.60
2023-02-15T04:33:18.953Z,17.60
2023-02-15T04:35:47.289Z,22.50
2023-02-15T04:38:15.856Z,19.60
2023-02-15T04:40:44.241Z,20.50
2023-02-15T04:43:12.501Z,16.10
2023-02-15T04:45:43.043Z,19.30
2023-02-15T04:48:13.666Z,22.60
2023-02-15T04:50:45.021Z,18.80
2023-02-15T04:53:13.699Z,18.70
2023-02-15T04:55:42.190Z,20.30
2023-02-15T04:58:10.777Z,19.20
2023-02-15T05:00:44.193Z,19.90
2023-02-15T05:03:12.372Z,20.20
2023-02-15T05:05:41.743Z,20.70
2023-02-15T05:10:38.277Z,19.20
2023-02-15T05:13:14.564Z,21.50
2023-02-15T05:15:47.442Z,21.10
2023-02-15T05:18:16.339Z,19.90
2023-02-15T05:20:45.225Z,20.70
2023-02-15T05:23:14.019Z,19.60
2023-02-15T05:26:01.301Z,19.10
2023-02-15T05:28:29.706Z,17.30
2023-02-15T05:31:24.649Z,16.30
2023-02-15T05:33:53.080Z,20.70
2023-02-15T05:36:21.296Z,18.50
2023-02-15T05:38:50.179Z,16.80
2023-02-15T05:41:18.655Z,16.80
2023-02-15T05:43:46.928Z,19.10
2023-02-15T05:46:15.489Z,16.30
2023-02-15T05:48:44.043Z,15.10
2023-02-15T05:51:15.143Z,19.10
2023-02-15T05:53:43.823Z,14.40
2023-02-15T05:56:32.728Z,17.20
2023-02-15T05:59:09.738Z,17.00
2023-02-15T06:01:37.960Z,20.40
2023-02-15T06:04:08.802Z,21.50
2023-02-15T06:06:37.075Z,20.60
2023-02-15T06:09:05.656Z,20.50
2023-02-15T06:11:33.920Z,19.10
2023-02-15T06:14:02.317Z,19.80
2023-02-15T06:16:30.604Z,18.40
2023-02-15T06:19:00.293Z,23.10
2023-02-15T06:21:29.694Z,18.50
2023-02-15T06:26:26.049Z,17.20
2023-02-15T06:28:54.221Z,19.60
2023-02-15T06:31:22.621Z,21.80
2023-02-15T06:33:51.076Z,16.40
2023-02-15T06:36:19.562Z,21.30
2023-02-15T06:38:47.941Z,20.30
2023-02-15T06:41:16.209Z,22.60
2023-02-15T06:43:44.383Z,24.20
2023-02-15T06:46:12.717Z,20.90
2023-02-15T06:48:40.948Z,27.30
2023-02-15T06:51:09.409Z,25.00
2023-02-15T06:53:37.585Z,30.60
2023-02-15T06:56:10.149Z,25.60
2023-02-15T06:58:42.433Z,27.10
2023-02-15T07:01:13.427Z,24.50
2023-02-15T07:03:41.652Z,26.60
2023-02-15T07:06:11.763Z,29.80
2023-02-15T07:08:40.669Z,30.20
2023-02-15T07:11:27.458Z,26.00
2023-02-15T07:13:55.914Z,27.50
2023-02-15T07:16:24.315Z,23.10
2023-02-15T07:18:52.602Z,24.10
2023-02-15T07:21:20.783Z,23.70
2023-02-15T07:23:48.987Z,24.40
2023-02-15T07:26:17.233Z,26.20
2023-02-15T07:28:45.402Z,28.20
2023-02-15T07:31:13.613Z,35.70
2023-02-15T07:33:42.271Z,40.70
2023-02-15T07:36:16.910Z,38.00
2023-02-15T07:38:45.889Z,33.10
2023-02-15T07:41:16.003Z,36.70
2023-02-15T07:43:46.123Z,31.70
2023-02-15T07:46:16.493Z,29.80
2023-02-15T07:48:45.954Z,32.20
2023-02-15T07:51:15.577Z,29.60
2023-02-15T07:53:43.954Z,28.40
2023-02-15T07:56:14.380Z,29.30
2023-02-15T07:58:59.415Z,31.00
2023-02-15T08:01:32.839Z,32.50
2023-02-15T08:04:01.262Z,32.50
2023-02-15T08:06:32.512Z,28.80
2023-02-15T08:09:02.075Z,34.50
2023-02-15T08:11:41.772Z,31.20
2023-02-15T08:14:13.030Z,27.00
2023-02-15T08:16:45.992Z,28.50
2023-02-15T08:19:17.725Z,31.10
2023-02-15T08:21:49.168Z,26.10
2023-02-15T08:24:20.873Z,30.40
2023-02-15T08:26:50.197Z,26.40
2023-02-15T08:29:22.320Z,27.30
2023-02-15T08:31:54.585Z,24.20
2023-02-15T08:34:22.757Z,28.00
2023-02-15T08:36:52.093Z,25.60
2023-02-15T08:39:20.837Z,27.30
2023-02-15T08:41:50.228Z,26.40
2023-02-15T08:44:20.677Z,23.60
2023-02-15T08:46:50.672Z,23.90
2023-02-15T08:49:21.205Z,23.70
2023-02-15T08:51:50.355Z,21.60
2023-02-15T08:54:21.931Z,23.30
2023-02-15T08:56:51.067Z,22.50
2023-02-15T08:59:22.394Z,22.80
2023-02-15T09:01:53.054Z,22.20
2023-02-15T09:04:23.759Z,22.40
2023-02-15T09:06:52.646Z,22.70
2023-02-15T09:09:22.061Z,20.10
2023-02-15T09:11:56.217Z,24.80
2023-02-15T09:14:28.346Z,26.30
2023-02-15T09:16:57.653Z,25.70
2023-02-15T09:19:26.247Z,24.40
2023-02-15T09:21:54.866Z,24.20
2023-02-15T09:24:40.797Z,24.30
2023-02-15T09:27:08.885Z,21.90
2023-02-15T09:32:31.333Z,22.90
2023-02-15T09:34:59.608Z,23.50
2023-02-15T09:37:27.783Z,22.20
2023-02-15T09:39:56.155Z,22.90
2023-02-15T09:45:22.793Z,21.50
2023-02-15T09:48:06.656Z,23.50
2023-02-15T09:50:44.862Z,20.60
2023-02-15T09:56:06.510Z,18.50
2023-02-15T09:58:59.978Z,23.50
2023-02-15T10:01:48.989Z,20.30
2023-02-15T10:04:36.788Z,20.80
2023-02-15T10:10:05.107Z,22.30
2023-02-15T10:12:40.294Z,22.20
2023-02-15T10:15:29.784Z,21.40
2023-02-15T10:18:13.118Z,19.80
2023-02-15T10:21:09.348Z,21.80
2023-02-15T10:23:53.284Z,21.20
2023-02-15T10:26:25.047Z,21.30
2023-02-15T10:29:07.667Z,20.00
2023-02-15T10:31:44.440Z,23.30
2023-02-15T10:34:20.757Z,19.60
2023-02-15T10:37:19.857Z,24.50
2023-02-15T10:40:06.627Z,24.30
2023-02-15T10:42:53.846Z,24.60
2023-02-15T10:45:49.361Z,23.10
2023-02-15T10:48:36.579Z,22.60
2023-02-15T10:51:10.455Z,26.40
2023-02-15T10:53:49.084Z,24.80
2023-02-15T10:59:20.269Z,24.60
2023-02-15T11:02:03.190Z,21.40
2023-02-15T11:04:31.466Z,32.30
2023-02-15T11:07:05.583Z,27.30
2023-02-15T11:09:54.434Z,30.10
2023-02-15T11:12:25.735Z,23.60
2023-02-15T11:15:26.934Z,25.00
2023-02-15T11:18:14.186Z,23.90
2023-02-15T11:21:00.434Z,24.60
2023-02-15T11:23:29.771Z,26.20
2023-02-15T11:26:01.208Z,24.20
2023-02-15T11:28:42.176Z,22.80
2023-02-15T11:31:18.792Z,23.20
2023-02-15T11:34:01.467Z,28.20
2023-02-15T11:36:34.697Z,24.30
2023-02-15T11:39:11.223Z,20.60
2023-02-15T11:41:45.707Z,21.80
2023-02-15T11:44:27.498Z,23.80
2023-02-15T11:46:55.645Z,23.50
2023-02-15T11:49:34.026Z,23.20
2023-02-15T11:52:06.206Z,23.70
2023-02-15T11:54:38.474Z,23.00
2023-02-15T11:57:12.244Z,23.30
2023-02-15T11:59:44.625Z,21.70
2023-02-15T12:02:23.522Z,22.90
2023-02-15T12:07:39.178Z,25.10
2023-02-15T12:10:35.097Z,22.70
2023-02-15T12:13:18.645Z,22.60
2023-02-15T12:15:55.426Z,25.20
2023-02-15T12:18:48.128Z,22.80
2023-02-15T12:21:27.695Z,19.70
2023-02-15T12:24:01.722Z,19.70
2023-02-15T12:26:36.692Z,19.60
2023-02-15T12:29:21.814Z,18.00
2023-02-15T12:31:52.780Z,18.40
2023-02-15T12:34:48.371Z,19.20
2023-02-15T12:37:26.796Z,18.70
2023-02-15T12:42:46.072Z,17.30
2023-02-15T12:45:28.555Z,17.60
2023-02-15T12:48:16.962Z,18.90
2023-02-15T12:50:54.414Z,18.70
2023-02-15T12:53:33.459Z,16.00
2023-02-15T12:56:10.395Z,18.00
2023-02-15T12:58:43.219Z,17.80
2023-02-15T13:01:23.234Z,18.20
2023-02-15T13:03:59.852Z,17.80
2023-02-15T13:06:29.975Z,19.00
2023-02-15T13:09:16.978Z,17.70
2023-02-15T13:11:46.283Z,17.00
2023-02-15T13:14:19.892Z,18.70
2023-02-15T13:16:51.916Z,16.40
2023-02-15T13:19:30.582Z,21.40
2023-02-15T13:24:49.447Z,17.60
2023-02-15T13:27:22.283Z,18.50
2023-02-15T13:30:03.377Z,19.50
2023-02-15T13:32:39.372Z,18.60
2023-02-15T13:35:16.660Z,20.60
2023-02-15T13:37:51.193Z,22.20
2023-02-15T13:40:38.396Z,18.40
2023-02-15T13:43:27.164Z,20.40
2023-02-15T13:46:25.213Z,20.90
2023-02-15T13:49:25.774Z,22.70
2023-02-15T13:52:20.056Z,21.20
2023-02-15T13:55:10.294Z,21.20
2023-02-15T13:58:03.327Z,22.30
2023-02-15T14:01:02.937Z,20.80
2023-02-15T14:04:08.392Z,24.80
2023-02-15T14:07:01.187Z,22.20
2023-02-15T14:09:35.538Z,24.60
2023-02-15T14:12:16.282Z,23.40
2023-02-15T14:15:23.039Z,22.20
2023-02-15T14:18:00.231Z,24.20
2023-02-15T14:20:57.611Z,23.90
2023-02-15T14:23:54.824Z,21.90
2023-02-15T14:26:35.446Z,24.10
2023-02-15T14:29:40.853Z,25.10
2023-02-15T14:32:36.617Z,21.50
2023-02-15T14:35:14.453Z,23.80
2023-02-15T14:38:10.857Z,24.90
2023-02-15T14:41:04.850Z,21.80
2023-02-15T14:44:11.314Z,24.60
2023-02-15T14:46:39.515Z,23.60
2023-02-15T14:49:15.241Z,22.50
2023-02-15T14:51:47.023Z,21.40
2023-02-15T14:54:18.466Z,22.70
2023-02-15T14:57:07.545Z,23.40
2023-02-15T15:02:50.890Z,22.70
2023-02-15T15:05:22.625Z,23.10
2023-02-15T15:07:54.988Z,20.60
2023-02-15T15:10:23.375Z,17.20
2023-02-15T15:12:55.718Z,19.50
2023-02-15T15:15:32.910Z,21.60
2023-02-15T15:18:10.831Z,24.80
2023-02-15T15:20:51.597Z,20.30
2023-02-15T15:23:20.421Z,23.90
2023-02-15T15:25:57.674Z,19.90
2023-02-15T15:28:35.508Z,23.70
2023-02-15T15:31:28.426Z,19.80
2023-02-15T15:34:31.593Z,18.40
2023-02-15T15:37:21.396Z,14.70
2023-02-15T15:40:08.454Z,14.60
2023-02-15T15:42:58.506Z,15.20
2023-02-15T15:45:35.448Z,14.80
2023-02-15T15:48:31.677Z,15.20
2023-02-15T15:51:04.706Z,16.90
2023-02-15T15:53:42.296Z,18.10
2023-02-15T15:56:19.482Z,19.10
2023-02-15T15:58:54.829Z,20.00
2023-02-15T16:01:32.713Z,17.30
2023-02-15T16:04:00.965Z,16.40
2023-02-15T16:06:29.190Z,16.40
2023-02-15T16:08:57.666Z,15.10
2023-02-15T16:11:30.351Z,20.70
2023-02-15T16:14:01.206Z,17.80
2023-02-15T16:16:30.711Z,18.30
2023-02-15T16:21:36.057Z,21.20
2023-02-15T16:24:37.647Z,19.10
2023-02-15T16:27:26.980Z,22.10
2023-02-15T16:30:01.739Z,22.00
2023-02-15T16:32:30.295Z,17.30
2023-02-15T16:35:04.315Z,19.40
2023-02-15T16:37:35.250Z,21.80
2023-02-15T16:40:04.226Z,25.80
2023-02-15T16:42:32.239Z,27.40
2023-02-15T16:45:10.713Z,28.30
2023-02-15T16:47:48.202Z,20.10
2023-02-15T16:50:23.847Z,25.90
2023-02-15T16:52:58.706Z,30.50
2023-02-15T16:55:33.288Z,32.20
2023-02-15T16:58:05.295Z,34.00
2023-02-15T17:00:56.232Z,45.30
2023-02-15T17:03:26.201Z,41.60
2023-02-15T17:06:00.591Z,39.40
2023-02-15T17:08:42.909Z,43.50
2023-02-15T17:11:22.240Z,44.00
2023-02-15T17:14:15.372Z,43.90
2023-02-15T17:16:50.439Z,41.10
2023-02-15T17:19:25.980Z,40.60
2023-02-15T17:22:03.498Z,42.80
2023-02-15T17:24:31.961Z,40.70
2023-02-15T17:27:07.452Z,44.40
2023-02-15T17:29:40.523Z,42.70
2023-02-15T17:32:41.262Z,45.20
2023-02-15T17:35:21.601Z,40.10
2023-02-15T17:37:51.116Z,41.20
2023-02-15T17:40:28.822Z,39.10
2023-02-15T17:42:57.126Z,37.10
2023-02-15T17:45:40.697Z,39.00
2023-02-15T17:48:21.708Z,33.40
2023-02-15T17:50:50.700Z,41.10
2023-02-15T17:53:20.482Z,44.60
2023-02-15T17:58:21.624Z,37.50
2023-02-15T18:01:16.426Z,38.50
2023-02-15T18:04:12.584Z,44.10
2023-02-15T18:07:05.197Z,42.70
2023-02-15T18:09:54.676Z,30.60
2023-02-15T18:12:29.359Z,36.80
2023-02-15T18:14:59.003Z,31.40
2023-02-15T18:17:34.767Z,34.60
2023-02-15T18:20:07.427Z,29.00
2023-02-15T18:22:49.761Z,30.80
2023-02-15T18:25:24.213Z,25.50
2023-02-15T18:27:55.033Z,24.80
2023-02-15T18:30:30.721Z,20.10
2023-02-15T18:33:00.876Z,27.00
2023-02-15T18:35:32.125Z,24.30
2023-02-15T18:38:04.510Z,29.80
2023-02-15T18:40:35.225Z,24.30
2023-02-15T18:43:03.625Z,27.30
2023-02-15T18:45:33.416Z,31.70
2023-02-15T18:48:02.202Z,28.70
2023-02-15T18:50:36.231Z,30.50
2023-02-15T18:53:09.036Z,28.00
2023-02-15T18:55:40.873Z,28.00
2023-02-15T18:58:16.627Z,31.00
2023-02-15T19:00:55.695Z,32.00
2023-02-15T19:03:35.088Z,29.30
2023-02-15T19:06:07.362Z,27.70
2023-02-15T19:08:35.623Z,30.30
2023-02-15T19:11:42.507Z,27.00
2023-02-15T19:14:24.879Z,19.70
2023-02-15T19:16:53.497Z,23.60
2023-02-15T19:19:22.395Z,24.10
2023-02-15T19:21:59.229Z,21.80
2023-02-15T19:24:48.125Z,26.20
2023-02-15T19:27:32.042Z,29.10
2023-02-15T19:30:03.397Z,16.10
2023-02-15T19:32:34.663Z,23.10
2023-02-15T19:35:05.200Z,21.80
2023-02-15T19:37:48.382Z,22.40
2023-02-15T19:40:23.353Z,20.40
2023-02-15T19:42:52.367Z,24.20
2023-02-15T19:45:25.243Z,31.70
2023-02-15T19:47:56.306Z,26.90
2023-02-15T19:50:28.761Z,26.70
2023-02-15T19:52:58.400Z,20.20
2023-02-15T19:55:28.324Z,25.90
2023-02-15T19:57:58.606Z,23.90
2023-02-15T20:00:49.773Z,27.20
2023-02-15T20:03:20.748Z,23.70
2023-02-15T20:05:51.796Z,24.20
2023-02-15T20:08:30.597Z,28.00
2023-02-15T20:10:59.136Z,26.70
2023-02-15T20:13:29.030Z,31.70
2023-02-15T20:15:57.400Z,29.90
2023-02-15T20:18:25.674Z,27.10
2023-02-15T20:20:55.686Z,24.40
2023-02-15T20:23:31.762Z,25.50
2023-02-15T20:26:02.974Z,24.80
2023-02-15T20:28:36.254Z,20.30
2023-02-15T20:31:28.265Z,23.20
2023-02-15T20:33:59.373Z,22.10
2023-02-15T20:36:27.793Z,25.90
2023-02-15T20:38:59.226Z,21.90
2023-02-15T20:41:48.179Z,24.80
2023-02-15T20:44:31.187Z,21.20
2023-02-15T20:47:01.761Z,22.50
2023-02-15T20:49:30.275Z,25.10
2023-02-15T20:52:16.852Z,26.50
2023-02-15T20:54:55.318Z,23.70
2023-02-15T20:57:29.160Z,25.90
2023-02-15T21:00:00.232Z,29.00
2023-02-15T21:03:11.857Z,21.30
2023-02-15T21:05:52.237Z,18.10
2023-02-15T21:08:22.509Z,23.80
2023-02-15T21:11:22.879Z,28.10
2023-02-15T21:13:57.193Z,31.10
2023-02-15T21:16:25.943Z,25.60
2023-02-15T21:19:01.761Z,22.80
2023-02-15T21:21:35.666Z,28.80
2023-02-15T21:24:05.526Z,30.40
2023-02-15T21:27:06.165Z,38.60
2023-02-15T21:29:37.521Z,26.60
2023-02-15T21:32:06.098Z,30.80
2023-02-15T21:34:34.615Z,27.90
2023-02-15T21:37:02.986Z,34.10
2023-02-15T21:39:34.137Z,38.40
2023-02-15T21:42:21.029Z,30.50
2023-02-15T21:45:10.586Z,38.00
2023-02-15T21:47:50.884Z,29.90
2023-02-15T21:50:45.543Z,31.10
2023-02-15T21:53:26.104Z,26.70
2023-02-15T21:55:57.358Z,32.90
2023-02-15T21:58:28.428Z,27.60
2023-02-15T22:00:59.292Z,28.50
2023-02-15T22:03:35.279Z,34.70
2023-02-15T22:06:04.845Z,30.30
2023-02-15T22:11:02.201Z,32.40
2023-02-15T22:13:34.038Z,34.10
2023-02-15T22:16:03.671Z,39.90
2023-02-15T22:18:34.228Z,36.20
2023-02-15T22:21:04.475Z,35.00
2023-02-15T22:23:32.867Z,37.70
2023-02-15T22:26:07.852Z,28.70
2023-02-15T22:28:39.477Z,32.00
2023-02-15T22:31:13.108Z,35.90
2023-02-15T22:33:41.543Z,37.00
2023-02-15T22:36:30.747Z,30.70
2023-02-15T22:38:59.227Z,35.10
2023-02-15T22:41:30.282Z,30.30
2023-02-15T22:43:58.794Z,39.70
2023-02-15T22:46:26.996Z,42.20
2023-02-15T22:48:55.269Z,40.20
2023-02-15T22:51:25.193Z,36.40
2023-02-15T22:53:54.008Z,34.00
2023-02-15T22:56:50.201Z,38.70
2023-02-15T22:59:28.206Z,35.00
2023-02-15T23:01:57.629Z,32.30
2023-02-15T23:04:29.285Z,35.10
2023-02-15T23:07:00.827Z,30.30
2023-02-15T23:09:29.211Z,28.00
2023-02-15T23:11:57.521Z,43.90
2023-02-15T23:14:36.654Z,39.10
2023-02-15T23:17:04.729Z,37.20
2023-02-15T23:19:33.168Z,36.30
2023-02-15T23:22:04.508Z,35.80
2023-02-15T23:24:34.709Z,38.30
2023-02-15T23:27:21.976Z,35.00
2023-02-15T23:29:50.323Z,34.70
2023-02-15T23:32:20.469Z,35.60
2023-02-15T23:34:48.800Z,32.80
2023-02-15T23:37:18.170Z,36.40
2023-02-15T23:40:05.571Z,34.00
2023-02-15T23:42:35.921Z,37.20
2023-02-15T23:45:06.542Z,32.60
2023-02-15T23:48:08.185Z,35.60
2023-02-15T23:50:36.578Z,31.90
2023-02-15T23:53:07.608Z,30.60
2023-02-15T23:55:39.149Z,32.50
2023-02-15T23:58:15.202Z,35.70
